Thomson Dream — 9HA2381 — position and weather

sailwx.info

Track history (hours):
 
Tides and Currents Weather Stations Pressure Air Temp Water Temp Dewpoint Dewpoint Depression Visibility Wind Speed Wind Dir Waves Ship Positions

Thomson Dream

Last reported at 2015-May-23 14:33 UTC. Time now 2015-May-23 14:58 UTC.
Position N 39°33' E 002°38'.

Length 243 m; draft 7.6 m.

Type: Ship. MMSI: 248480975.

Date/timePositionNaut miles runAvg speedWind from/ knotsBaromVisibWave heightAir tempDewpointWater temp
2015-May-23 14:33N 39°33' E 002°38'0 0.0
2015-May-23 13:33N 39°33' E 002°38'0 0.0
2015-May-23 12:33N 39°33' E 002°38'  
2015-May-20 04:31N 42°06' E 011°46'7 5.1
2015-May-20 03:04N 41°59' E 011°47'611.1
2015-May-20 02:33N 41°54' E 011°51'1111.1
2015-May-20 01:33N 41°45' E 011°59'1111.3
2015-May-20 00:33N 41°36' E 012°07'2914.5
2015-May-19 22:33N 41°12' E 012°29'1616.3
2015-May-19 21:33N 40°58' E 012°41'3215.3
2015-May-19 19:28N 40°43' E 013°18'1515.9
2015-May-19 18:33N 40°40' E 013°37'1616.0
2015-May-19 17:33N 40°38' E 013°58'1616.0
2015-May-19 16:33N 40°40' E 014°18'4 0.6
2015-May-19 10:28N 40°38' E 014°23'0 0.0
2015-May-19 09:28N 40°38' E 014°23'0 0.0
2015-May-19 07:22N 40°38' E 014°23'0 0.0
2015-May-19 05:19N 40°38' E 014°23'0 0.0
2015-May-19 04:33N 40°38' E 014°23'5 5.2
2015-May-19 03:34N 40°39' E 014°16'1110.6
2015-May-19 02:33N 40°38' E 014°02'1010.4
2015-May-19 01:33N 40°38' E 013°48'1110.5
2015-May-19 00:33N 40°39' E 013°34'1414.1
2015-May-18 23:33N 40°40' E 013°16'1817.9
2015-May-18 22:34N 40°42' E 012°52'1716.6
2015-May-18 21:34N 40°45' E 012°31'1716.7
2015-May-18 20:34N 40°47' E 012°09'1716.1
2015-May-18 19:32N 40°49' E 011°47'1816.4
2015-May-18 18:27N 40°50' E 011°24'8216.2
2015-May-18 13:24N 40°56' E 009°36'4 4.6
2015-May-18 12:32N 40°55' E 009°31'0 0.0
2015-May-18 11:32N 40°55' E 009°31'0 0.0
2015-May-18 10:20N 40°55' E 009°31'0 0.0
2015-May-18 09:26N 40°55' E 009°31'0 0.0
2015-May-18 08:26N 40°55' E 009°31'0 0.0
2015-May-18 07:26N 40°55' E 009°31'0 0.0
2015-May-18 06:29N 40°55' E 009°31'0 0.0
2015-May-18 05:33N 40°55' E 009°31'3 3.1
2015-May-18 04:33N 40°56' E 009°35'28010.6
2015-May-17 02:07N 39°23' E 003°50'916.7
2015-May-17 01:33N 39°19' E 003°39'1717.4
2015-May-17 00:33N 39°11' E 003°19'1716.9
2015-May-16 23:33N 39°03' E 002°60'1413.7
2015-May-16 22:33N 39°11' E 002°46'2315.3
2015-May-16 21:04N 39°33' E 002°39'1 1.5
2015-May-16 20:32N 39°33' E 002°38'0 0.0
2015-May-16 19:32N 39°33' E 002°38'0 0.0
2015-May-16 18:32N 39°33' E 002°38'0 0.0
2015-May-16 17:29N 39°33' E 002°38'0 0.0
2015-May-16 16:29N 39°33' E 002°38'0 0.0
2015-May-16 15:29N 39°33' E 002°38'0 0.0
2015-May-16 14:29N 39°33' E 002°38'0 0.0
2015-May-16 13:32N 39°33' E 002°38'120 5.7
2015-May-15 16:28N 39°24' E 000°03'1515.8
2015-May-15 15:33N 39°26' W 000°16'3 0.3
2015-May-15 06:08N 39°27' W 000°19'0 0.2
2015-May-15 05:33N 39°27' W 000°19'9 8.9
2015-May-15 04:33N 39°21' W 000°11'56 9.3
2015-May-14 22:33N 38°30' E 000°17'1110.8
2015-May-14 21:30N 38°21' E 000°09'1011.0
2015-May-14 20:33N 38°12' E 000°02'1110.8
2015-May-14 19:33N 38°03' W 000°06'1111.0
2015-May-14 18:33N 37°54' W 000°14'1716.7
2015-May-14 17:33N 37°40' W 000°25'1515.4
2015-May-14 16:33N 37°30' W 000°41'1515.2
2015-May-14 15:33N 37°35' W 000°59'1 0.1
2015-May-14 06:13N 37°36' W 000°59'3 4.8
2015-May-14 05:33N 37°33' W 001°01'1414.2
2015-May-14 04:33N 37°22' W 001°12'1816.5
2015-May-14 03:29N 37°07' W 001°24'1516.4
2015-May-14 02:33N 36°55' W 001°36'1616.4
2015-May-14 01:33N 36°41' W 001°47'1616.2
2015-May-14 00:33N 36°29' W 002°00'1615.9
2015-May-13 23:33N 36°21' W 002°17'1717.4
2015-May-13 22:33N 36°19' W 002°39'1616.4
2015-May-13 21:33N 36°17' W 002°59'1716.6
2015-May-13 20:34N 36°14' W 003°19'3416.4
2015-May-13 18:30N 36°11' W 004°01'5817.0
2015-May-13 15:06N 36°05' W 005°12'815.7
2015-May-13 14:33N 36°06' W 005°23'  
Track history (hours):
 
Tides and Currents Weather Stations Pressure Air Temp Water Temp Dewpoint Dewpoint Depression Visibility Wind Speed Wind Dir Waves Ship Positions

Thomson Dream

Last reported at 2015-May-23 14:33 UTC. Time now 2015-May-23 14:58 UTC.
Position N 39°33' E 002°38'.

Length 243 m; draft 7.6 m.

Type: Ship. MMSI: 248480975.

Date/timePositionNaut miles runAvg speedWind from/ knotsBaromVisibWave heightAir tempDewpointWater temp
2015-May-23 14:33N 39°33' E 002°38'0 0.0
2015-May-23 13:33N 39°33' E 002°38'0 0.0
2015-May-23 12:33N 39°33' E 002°38'  
2015-May-20 04:31N 42°06' E 011°46'7 5.1
2015-May-20 03:04N 41°59' E 011°47'611.1
2015-May-20 02:33N 41°54' E 011°51'1111.1
2015-May-20 01:33N 41°45' E 011°59'1111.3
2015-May-20 00:33N 41°36' E 012°07'2914.5
2015-May-19 22:33N 41°12' E 012°29'1616.3
2015-May-19 21:33N 40°58' E 012°41'3215.3
2015-May-19 19:28N 40°43' E 013°18'1515.9
2015-May-19 18:33N 40°40' E 013°37'1616.0
2015-May-19 17:33N 40°38' E 013°58'1616.0
2015-May-19 16:33N 40°40' E 014°18'4 0.6
2015-May-19 10:28N 40°38' E 014°23'0 0.0
2015-May-19 09:28N 40°38' E 014°23'0 0.0
2015-May-19 07:22N 40°38' E 014°23'0 0.0
2015-May-19 05:19N 40°38' E 014°23'0 0.0
2015-May-19 04:33N 40°38' E 014°23'5 5.2
2015-May-19 03:34N 40°39' E 014°16'1110.6
2015-May-19 02:33N 40°38' E 014°02'1010.4
2015-May-19 01:33N 40°38' E 013°48'1110.5
2015-May-19 00:33N 40°39' E 013°34'1414.1
2015-May-18 23:33N 40°40' E 013°16'1817.9
2015-May-18 22:34N 40°42' E 012°52'1716.6
2015-May-18 21:34N 40°45' E 012°31'1716.7
2015-May-18 20:34N 40°47' E 012°09'1716.1
2015-May-18 19:32N 40°49' E 011°47'1816.4
2015-May-18 18:27N 40°50' E 011°24'8216.2
2015-May-18 13:24N 40°56' E 009°36'4 4.6
2015-May-18 12:32N 40°55' E 009°31'0 0.0
2015-May-18 11:32N 40°55' E 009°31'0 0.0
2015-May-18 10:20N 40°55' E 009°31'0 0.0
2015-May-18 09:26N 40°55' E 009°31'0 0.0
2015-May-18 08:26N 40°55' E 009°31'0 0.0
2015-May-18 07:26N 40°55' E 009°31'0 0.0
2015-May-18 06:29N 40°55' E 009°31'0 0.0
2015-May-18 05:33N 40°55' E 009°31'3 3.1
2015-May-18 04:33N 40°56' E 009°35'28010.6
2015-May-17 02:07N 39°23' E 003°50'916.7
2015-May-17 01:33N 39°19' E 003°39'1717.4
2015-May-17 00:33N 39°11' E 003°19'1716.9
2015-May-16 23:33N 39°03' E 002°60'1413.7
2015-May-16 22:33N 39°11' E 002°46'2315.3
2015-May-16 21:04N 39°33' E 002°39'1 1.5
2015-May-16 20:32N 39°33' E 002°38'0 0.0
2015-May-16 19:32N 39°33' E 002°38'0 0.0
2015-May-16 18:32N 39°33' E 002°38'0 0.0
2015-May-16 17:29N 39°33' E 002°38'0 0.0
2015-May-16 16:29N 39°33' E 002°38'0 0.0
2015-May-16 15:29N 39°33' E 002°38'0 0.0
2015-May-16 14:29N 39°33' E 002°38'0 0.0
2015-May-16 13:32N 39°33' E 002°38'120 5.7
2015-May-15 16:28N 39°24' E 000°03'1515.8
2015-May-15 15:33N 39°26' W 000°16'3 0.3
2015-May-15 06:08N 39°27' W 000°19'0 0.2
2015-May-15 05:33N 39°27' W 000°19'9 8.9
2015-May-15 04:33N 39°21' W 000°11'56 9.3
2015-May-14 22:33N 38°30' E 000°17'1110.8
2015-May-14 21:30N 38°21' E 000°09'1011.0
2015-May-14 20:33N 38°12' E 000°02'1110.8
2015-May-14 19:33N 38°03' W 000°06'1111.0
2015-May-14 18:33N 37°54' W 000°14'1716.7
2015-May-14 17:33N 37°40' W 000°25'1515.4
2015-May-14 16:33N 37°30' W 000°41'1515.2
2015-May-14 15:33N 37°35' W 000°59'1 0.1
2015-May-14 06:13N 37°36' W 000°59'3 4.8
2015-May-14 05:33N 37°33' W 001°01'1414.2
2015-May-14 04:33N 37°22' W 001°12'1816.5
2015-May-14 03:29N 37°07' W 001°24'1516.4
2015-May-14 02:33N 36°55' W 001°36'1616.4
2015-May-14 01:33N 36°41' W 001°47'1616.2
2015-May-14 00:33N 36°29' W 002°00'1615.9
2015-May-13 23:33N 36°21' W 002°17'1717.4
2015-May-13 22:33N 36°19' W 002°39'1616.4
2015-May-13 21:33N 36°17' W 002°59'1716.6
2015-May-13 20:34N 36°14' W 003°19'3416.4
2015-May-13 18:30N 36°11' W 004°01'5817.0
2015-May-13 15:06N 36°05' W 005°12'815.7
2015-May-13 14:33N 36°06' W 005°23'  

Dump ship's entire track history